Time;durP1;ratioP1;P1;durP2;ratioP2;P2;SDS_P1;SDS_P2;PMS_P1;PMS_P2;Temp;Humidity;BMP_temperature;BMP_pressure;BME280_temperature;BME280_humidity;BME280_pressure;Samples;Min_cycle;Max_cycle;Signal;HPM_P1;HPM_P2
2022/04/28 00:01:00;;;;;;;9.47;8.47;;;9.60;99.90;;;-141.84;69.44;17420.47;5012922;28;20186;-62
2022/04/28 00:03:28;;;;;;;11.43;8.87;;;9.50;99.90;;;-141.84;69.04;17420.47;5031693;28;20222;-62
2022/04/28 00:05:58;;;;;;;9.27;8.37;;;9.50;99.90;;;-141.84;71.21;17396.09;5031503;28;20601;-63
2022/04/28 00:08:27;;;;;;;9.53;8.53;;;9.40;99.90;;;-141.84;72.73;17357.50;5031650;28;20261;-63
2022/04/28 00:10:54;;;;;;;11.50;9.93;;;9.30;99.90;;;-141.84;73.22;17367.66;5031292;28;20232;-62
2022/04/28 00:13:22;;;;;;;9.90;8.90;;;9.30;99.90;;;-141.84;72.32;17343.28;5031401;28;20234;-66
2022/04/28 00:15:52;;;;;;;12.03;9.83;;;9.30;99.90;;;-141.84;71.62;17353.44;5031739;28;20206;-62
2022/04/28 00:18:20;;;;;;;13.73;10.00;;;9.20;99.90;;;-141.84;70.43;17383.91;5031683;28;20322;-62
2022/04/28 00:20:48;;;;;;;11.27;9.70;;;9.20;99.90;;;-141.84;70.64;17373.75;5031273;28;20317;-61
2022/04/28 00:23:16;;;;;;;11.43;9.23;;;9.20;99.90;;;-141.84;71.76;17383.91;5031438;28;20713;-63
2022/04/28 00:25:44;;;;;;;11.87;9.57;;;9.20;99.90;;;-141.84;72.71;17355.47;5030875;28;20317;-64
2022/04/28 00:28:12;;;;;;;10.60;9.50;;;9.10;99.90;;;-141.84;73.31;17355.47;5031356;28;20228;-63
2022/04/28 00:30:40;;;;;;;10.83;9.50;;;9.00;99.90;;;-141.84;73.86;17312.81;5031896;28;20297;-63
2022/04/28 00:33:15;;;;;;;10.43;9.33;;;8.90;99.90;;;-141.84;75.16;17288.44;5031129;28;20225;-63
2022/04/28 00:35:43;;;;;;;10.73;9.63;;;8.90;99.90;;;-141.84;75.43;17282.34;5031074;28;20348;-63
2022/04/28 00:38:12;;;;;;;11.23;10.07;;;8.80;99.90;;;-141.84;75.33;17292.50;5031302;28;20317;-61
2022/04/28 00:40:40;;;;;;;10.77;9.63;;;8.80;99.90;;;-141.84;75.26;17304.69;5030611;28;20244;-63
2022/04/28 00:43:20;;;;;;;12.40;9.77;;;8.70;99.90;;;-141.84;75.54;17280.31;5024284;28;20290;-63
2022/04/28 00:45:49;;;;;;;10.13;9.07;;;8.70;99.90;;;-141.84;76.05;17284.38;5011950;28;20395;-62
2022/04/28 00:51:07;;;;;;;10.53;9.50;;;8.60;99.90;;;-141.84;76.56;17266.09;5011048;28;20692;-63
2022/04/28 00:53:44;;;;;;;10.63;9.60;;;8.60;99.90;;;-141.84;76.58;17247.81;5011162;28;20325;-62
2022/04/28 00:56:13;;;;;;;13.70;9.57;;;8.60;99.90;;;-141.84;77.19;17262.03;5010720;28;20317;-64
2022/04/28 00:58:41;;;;;;;12.20;9.40;;;8.50;99.90;;;-141.84;77.48;17257.97;5022167;28;20221;-63
2022/04/28 01:01:10;;;;;;;10.37;9.23;;;8.50;99.90;;;-141.84;77.55;17255.94;5030654;28;20202;-62
2022/04/28 01:03:39;;;;;;;10.90;9.70;;;8.40;99.90;;;-141.84;77.31;17233.59;5031350;28;20217;-63
2022/04/28 01:06:08;;;;;;;13.13;9.70;;;8.50;99.90;;;-141.84;77.38;17225.47;5030347;28;20256;-63
2022/04/28 01:08:36;;;;;;;11.53;9.67;;;8.40;99.90;;;-141.84;77.72;17235.63;5030822;28;20817;-61
2022/04/28 01:11:04;;;;;;;11.57;9.83;;;8.40;99.90;;;-141.84;77.10;17233.59;5030106;28;20347;-62
2022/04/28 01:13:32;;;;;;;12.20;9.57;;;8.40;99.90;;;-141.84;75.95;17231.56;5030263;28;20615;-63
2022/04/28 01:16:01;;;;;;;10.80;9.70;;;8.40;99.90;;;-141.84;75.14;17310.78;5031145;28;20289;-62
2022/04/28 01:18:29;;;;;;;12.87;10.47;;;8.50;99.90;;;-141.84;76.23;17233.59;5031141;28;20297;-61
2022/04/28 01:21:02;;;;;;;12.50;9.90;;;8.50;99.90;;;-141.84;76.17;17229.53;5030265;28;20232;-63
2022/04/28 01:23:32;;;;;;;11.23;9.50;;;8.50;99.90;;;-141.84;76.87;17219.38;5029735;28;20673;-61
2022/04/28 01:26:01;;;;;;;12.50;9.57;;;8.40;99.90;;;-141.84;77.15;17233.59;5030322;28;20256;-62
2022/04/28 01:28:29;;;;;;;12.20;10.20;;;8.40;99.90;;;-141.84;76.19;17280.31;5030461;28;20247;-63
2022/04/28 01:30:59;;;;;;;11.47;10.27;;;8.40;99.90;;;-141.84;76.95;17229.53;5030834;28;20230;-62
2022/04/28 01:33:27;;;;;;;12.07;10.83;;;8.30;99.90;;;-141.84;77.16;17249.84;5030570;28;20294;-63
2022/04/28 01:35:55;;;;;;;11.93;9.90;;;8.30;99.90;;;-141.84;78.02;17205.16;5030252;28;20228;-61
2022/04/28 01:38:25;;;;;;;11.83;10.50;;;8.30;99.90;;;-141.84;78.95;17223.44;5030394;28;20245;-62
2022/04/28 01:40:53;;;;;;;12.70;10.73;;;8.20;99.90;;;-141.84;79.34;17180.78;5029985;28;20240;-62
2022/04/28 01:43:21;;;;;;;13.10;11.70;;;8.20;99.90;;;-141.84;78.14;17205.16;5021796;28;20198;-62
2022/04/28 01:45:49;;;;;;;14.67;10.87;;;8.20;99.90;;;-141.84;78.48;17190.94;5011288;28;20310;-63
2022/04/28 01:48:17;;;;;;;12.63;11.27;;;8.20;99.90;;;-141.84;78.59;17209.22;5010194;28;20222;-63
2022/04/28 01:54:57;;;;;;;14.07;11.20;;;8.10;99.90;;;-141.84;79.27;17178.75;5010708;28;20233;-62
2022/04/28 01:56:20;;;;;;;14.33;12.03;;;8.10;99.90;;;-141.84;78.66;17209.22;5010129;28;20764;-62
2022/04/28 01:58:48;;;;;;;14.37;11.63;;;8.10;99.90;;;-141.84;79.40;17192.97;5010662;28;20329;-62
2022/04/28 02:01:16;;;;;;;16.00;11.80;;;8.10;99.90;;;-141.84;80.39;17156.41;5010226;28;20210;-62
2022/04/28 02:03:44;;;;;;;15.37;11.23;;;8.10;99.90;;;-141.84;80.99;17168.59;5011188;28;20202;-62
2022/04/28 02:06:12;;;;;;;13.27;11.77;;;8.00;99.90;;;-141.84;80.99;17186.88;5010240;28;20677;-63
2022/04/28 02:08:41;;;;;;;13.47;11.73;;;8.00;99.90;;;-141.84;79.78;17190.94;5010359;28;20677;-61
2022/04/28 02:11:09;;;;;;;15.90;12.07;;;8.00;99.90;;;-141.84;79.41;17150.31;5023418;28;20309;-62
2022/04/28 02:13:37;;;;;;;14.70;11.20;;;8.10;99.90;;;-141.84;77.55;17213.28;5030003;28;20225;-63
2022/04/28 02:16:06;;;;;;;14.70;11.53;;;8.20;99.90;;;-141.84;76.36;17209.22;5030245;28;20225;-61
2022/04/28 02:18:34;;;;;;;12.07;10.87;;;8.30;99.90;;;-141.84;77.20;17197.03;5030770;28;20233;-63
2022/04/28 02:21:02;;;;;;;12.33;11.03;;;8.40;99.90;;;-141.84;77.26;17215.31;5029864;28;20776;-63
2022/04/28 02:23:30;;;;;;;13.80;11.13;;;8.40;99.90;;;-141.84;77.55;17201.09;5030044;28;20222;-61
2022/04/28 02:25:59;;;;;;;13.97;11.30;;;8.40;99.90;;;-141.84;77.20;17219.38;5029761;28;20261;-63
2022/04/28 02:28:28;;;;;;;14.63;10.97;;;8.40;99.90;;;-141.84;77.02;17203.13;5029780;28;20234;-62
2022/04/28 02:30:56;;;;;;;12.77;11.10;;;8.40;99.90;;;-141.84;77.01;17213.28;5030513;28;20570;-63
2022/04/28 02:33:24;;;;;;;14.40;11.03;;;8.40;99.90;;;-141.84;73.48;17227.50;5029710;28;20229;-64
2022/04/28 02:35:52;;;;;;;14.23;11.00;;;8.50;99.90;;;-141.84;73.03;17272.19;5032408;28;20229;-63
2022/04/28 02:38:20;;;;;;;12.00;10.00;;;8.60;99.90;;;-141.84;72.44;17257.97;5033482;28;20226;-62
2022/04/28 02:40:48;;;;;;;12.73;10.33;;;8.70;99.90;;;-141.84;70.54;17325.00;5033128;28;20244;-62
2022/04/28 02:43:18;;;;;;;12.43;10.70;;;8.70;99.90;;;-141.84;72.33;17298.59;5025021;28;20207;-61
2022/04/28 02:45:48;;;;;;;13.80;10.73;;;8.80;99.90;;;-141.84;71.34;17276.25;5014163;28;20206;-64
2022/04/28 02:48:16;;;;;;;13.13;10.47;;;8.80;99.90;;;-141.84;70.76;17310.78;5013472;28;20250;-64
2022/04/28 02:50:44;;;;;;;11.33;10.00;;;8.80;99.90;;;-141.84;71.69;17290.47;5020763;28;20228;-62
2022/04/28 02:53:12;;;;;;;12.30;10.47;;;8.70;99.90;;;-141.84;72.28;17286.41;5033131;28;20318;-63
2022/04/28 02:55:40;;;;;;;11.67;10.33;;;8.70;99.90;;;-141.84;72.91;17274.22;5033173;28;20313;-64
2022/04/28 02:58:09;;;;;;;12.43;10.43;;;8.60;99.90;;;-141.84;70.77;17294.53;5033057;28;20202;-62
2022/04/28 03:00:39;;;;;;;14.87;11.70;;;8.70;99.90;;;-141.84;70.68;17294.53;5033781;28;20289;-62
2022/04/28 03:03:07;;;;;;;11.57;10.33;;;8.70;99.90;;;-141.84;70.58;17300.63;5032774;28;20308;-62
2022/04/28 03:10:46;;;;;;;13.17;11.23;;;8.70;99.90;;;-141.84;70.01;17320.94;5032920;28;20230;-63
2022/04/28 03:11:24;;;;;;;13.10;10.60;;;8.80;99.90;;;-141.84;70.57;17337.19;4988802;28;20235;-61
2022/04/28 03:13:52;;;;;;;11.83;9.97;;;8.70;99.90;;;-141.84;72.05;17278.28;5012831;28;20257;-62
2022/04/28 03:16:22;;;;;;;12.17;10.73;;;8.60;99.90;;;-141.84;72.60;17270.16;5013117;28;20603;-61
2022/04/28 03:18:50;;;;;;;13.17;10.33;;;8.50;99.90;;;-141.84;72.65;17286.41;5013075;28;20630;-63
2022/04/28 03:21:18;;;;;;;13.87;11.03;;;8.50;99.90;;;-141.84;71.90;17310.78;5012790;28;20231;-63
2022/04/28 03:23:46;;;;;;;11.63;10.03;;;8.50;99.90;;;-141.84;71.68;17286.41;5012828;28;20235;-61
2022/04/28 03:26:14;;;;;;;13.10;10.60;;;8.50;99.90;;;-141.84;72.58;17229.53;5012327;28;20233;-62
2022/04/28 03:28:42;;;;;;;13.13;10.07;;;8.40;99.90;;;-141.84;73.92;17257.97;5012507;28;20706;-63
2022/04/28 03:31:10;;;;;;;11.30;10.10;;;8.30;99.90;;;-141.84;74.77;17215.31;5013512;28;20293;-62
2022/04/28 03:33:39;;;;;;;15.10;10.63;;;8.30;99.90;;;-141.84;74.53;17257.97;5033006;28;20202;-62
2022/04/28 03:36:50;;;;;;;12.37;10.67;;;8.20;99.90;;;-141.84;73.73;17253.91;5032111;28;20725;-61
2022/04/28 03:38:56;;;;;;;14.03;10.77;;;8.20;99.90;;;-141.84;72.71;17286.41;5032162;28;20253;-62
2022/04/28 03:41:24;;;;;;;13.53;10.63;;;8.30;99.90;;;-141.84;73.70;17268.13;5031852;28;20257;-63
2022/04/28 03:43:52;;;;;;;13.07;10.70;;;8.30;99.90;;;-141.84;74.03;17260.00;5019246;28;20309;-61
2022/04/28 03:46:20;;;;;;;12.53;11.00;;;8.30;99.90;;;-141.84;75.23;17237.66;5013794;28;20231;-64
2022/04/28 03:48:49;;;;;;;13.97;10.50;;;8.20;99.90;;;-141.84;75.10;17225.47;5032379;28;20225;-62
2022/04/28 03:51:17;;;;;;;13.63;10.83;;;8.20;99.90;;;-141.84;75.45;17241.72;5031762;28;20230;-64
2022/04/28 03:53:45;;;;;;;13.47;10.70;;;8.20;99.90;;;-141.84;75.16;17239.69;5031848;28;20234;-62
2022/04/28 03:56:13;;;;;;;13.17;10.97;;;8.20;99.90;;;-141.84;74.02;17219.38;5031739;28;20226;-63
2022/04/28 03:58:42;;;;;;;12.40;10.40;;;8.30;99.90;;;-141.84;73.97;17247.81;5031976;28;20313;-63
2022/04/28 04:01:10;;;;;;;12.93;10.37;;;8.30;99.90;;;-141.84;73.40;17272.19;5031540;28;20654;-62
2022/04/28 04:03:38;;;;;;;13.87;10.90;;;8.40;99.90;;;-141.84;73.56;17245.78;5032288;28;20199;-62
2022/04/28 04:06:08;;;;;;;14.63;10.50;;;8.40;99.90;;;-141.84;72.49;17274.22;5031648;28;20717;-62
2022/04/28 04:08:36;;;;;;;13.83;9.93;;;8.40;99.90;;;-141.84;73.20;17249.84;5031544;28;20716;-62
2022/04/28 04:11:04;;;;;;;13.27;10.40;;;8.40;99.90;;;-141.84;73.57;17247.81;5031410;28;20230;-62
2022/04/28 04:13:32;;;;;;;13.13;10.00;;;8.40;99.90;;;-141.84;72.94;17266.09;5031671;28;20310;-62
2022/04/28 04:16:00;;;;;;;15.67;11.03;;;8.40;99.90;;;-141.84;73.29;17257.97;5032132;28;20209;-61
2022/04/28 04:18:28;;;;;;;14.77;10.67;;;8.40;99.90;;;-141.84;72.89;17268.13;5031203;28;20230;-62
2022/04/28 04:20:55;;;;;;;11.30;9.93;;;8.50;99.90;;;-141.84;72.63;17286.41;5031390;28;20255;-61
2022/04/28 04:23:25;;;;;;;12.53;10.60;;;8.50;99.90;;;-141.84;71.63;17282.34;5031287;28;20230;-63
2022/04/28 04:25:53;;;;;;;13.80;10.30;;;8.60;99.90;;;-141.84;71.24;17288.44;5031214;28;20309;-62
2022/04/28 04:28:21;;;;;;;15.00;10.37;;;8.70;99.90;;;-141.84;72.13;17268.13;5031153;28;20209;-62
2022/04/28 04:33:36;;;;;;;12.57;10.63;;;8.70;99.90;;;-141.84;72.85;17260.00;4986044;28;20677;-61
2022/04/28 04:36:05;;;;;;;14.60;12.03;;;8.70;99.90;;;-141.84;71.66;17294.53;5011284;28;20232;-62
2022/04/28 04:38:34;;;;;;;12.90;10.53;;;8.70;99.90;;;-141.84;72.03;17290.47;5011402;28;20650;-62
2022/04/28 04:41:02;;;;;;;15.67;10.80;;;8.80;99.90;;;-141.84;72.14;17272.19;5023299;28;20784;-63
2022/04/28 04:43:30;;;;;;;17.17;10.10;;;8.80;99.90;;;-141.84;71.92;17255.94;5030428;28;20745;-62
2022/04/28 04:45:58;;;;;;;12.90;10.27;;;8.80;99.90;;;-141.84;72.33;17278.28;5031491;28;20237;-62
2022/04/28 04:48:26;;;;;;;13.63;10.33;;;8.90;99.90;;;-141.84;71.41;17260.00;5030687;28;20291;-63
2022/04/28 04:50:55;;;;;;;14.10;10.20;;;8.90;99.90;;;-141.84;72.20;17268.13;5030567;28;20333;-62
2022/04/28 04:53:23;;;;;;;12.60;10.27;;;8.90;99.90;;;-141.84;70.96;17286.41;5030991;28;20538;-63
2022/04/28 04:55:52;;;;;;;12.57;10.30;;;8.90;99.90;;;-141.84;71.57;17286.41;5030472;28;20296;-62
2022/04/28 04:58:20;;;;;;;13.90;9.87;;;8.90;99.90;;;-141.84;72.04;17272.19;5030155;28;20272;-62
2022/04/28 05:00:48;;;;;;;14.13;10.37;;;8.90;99.90;;;-141.84;71.41;17286.41;5031060;28;20313;-63
2022/04/28 05:03:17;;;;;;;12.63;9.63;;;9.00;99.90;;;-141.84;70.04;17335.16;5030584;28;20272;-61
2022/04/28 05:05:45;;;;;;;12.90;10.03;;;9.20;99.90;;;-141.84;68.42;17343.28;5030423;28;20233;-62
2022/04/28 05:08:14;;;;;;;13.87;9.77;;;9.50;99.90;;;-141.84;66.04;17369.69;5030685;28;20256;-63
2022/04/28 05:10:42;;;;;;;10.00;9.00;;;9.70;99.90;;;-141.84;65.27;17420.47;5029888;28;20312;-62
2022/04/28 05:13:11;;;;;;;12.93;9.80;;;10.10;99.90;;;-141.84;62.75;17477.31;5030022;28;20316;-62
2022/04/28 05:15:39;;;;;;;10.80;9.23;;;10.40;99.90;;;-141.84;61.06;17550.44;5030656;28;20210;-62
2022/04/28 05:18:07;;;;;;;12.57;9.90;;;10.60;99.90;;;-141.84;61.44;17497.63;5030229;28;20233;-61
2022/04/28 05:20:35;;;;;;;12.50;9.67;;;10.50;99.90;;;-141.84;60.84;17522.00;5030100;28;20763;-62
2022/04/28 05:23:04;;;;;;;10.07;8.90;;;10.60;99.90;;;-141.84;61.11;17522.00;5030296;28;20613;-63
2022/04/28 05:25:33;;;;;;;12.43;9.40;;;10.50;99.90;;;-141.84;60.96;17517.94;5030152;28;20257;-61
2022/04/28 05:28:01;;;;;;;13.50;9.10;;;10.50;99.90;;;-141.84;61.35;17509.81;5030439;28;20297;-63
2022/04/28 05:30:30;;;;;;;12.73;9.37;;;10.50;99.90;;;-141.84;61.30;17497.63;5029995;28;20228;-62
2022/04/28 05:32:58;;;;;;;12.27;8.77;;;10.40;99.90;;;-141.84;61.17;17526.06;5030218;28;20260;-63
2022/04/28 05:35:27;;;;;;;10.23;9.20;;;10.50;99.90;;;-141.84;61.53;17530.13;5030001;28;20230;-62
2022/04/28 05:37:56;;;;;;;11.13;9.53;;;10.60;99.90;;;-141.84;61.78;17505.75;5030321;28;20313;-62
2022/04/28 05:40:24;;;;;;;11.07;9.00;;;10.60;99.90;;;-141.84;63.50;17469.19;5029489;28;20229;-62
2022/04/28 05:45:46;;;;;;;10.90;9.23;;;10.40;99.90;;;-141.84;63.41;17452.97;5010590;28;20596;-62
2022/04/28 05:48:16;;;;;;;10.67;9.23;;;10.20;99.90;;;-141.84;64.22;17459.06;5010138;28;20636;-63
2022/04/28 05:50:46;;;;;;;11.30;9.00;;;10.20;99.90;;;-141.84;62.73;17473.25;5010327;28;20280;-63
2022/04/28 05:53:14;;;;;;;11.93;8.87;;;10.30;99.90;;;-141.84;61.46;17505.75;5010443;28;20230;-62
2022/04/28 05:55:43;;;;;;;10.53;8.87;;;10.40;99.90;;;-141.84;61.15;17524.03;5009976;28;20744;-62
2022/04/28 05:58:10;;;;;;;10.17;9.07;;;10.60;99.90;;;-141.84;60.21;17538.25;5010013;28;20203;-62
2022/04/28 06:00:39;;;;;;;13.77;9.27;;;10.70;99.90;;;-141.84;60.91;17534.19;5010446;28;20293;-62
2022/04/28 06:03:08;;;;;;;13.03;9.57;;;10.80;99.90;;;-141.84;59.55;17542.31;5010343;28;20264;-62
2022/04/28 06:05:36;;;;;;;12.97;8.43;;;11.10;99.90;;;-141.84;57.10;17597.16;5010142;28;20234;-63
2022/04/28 06:08:05;;;;;;;13.73;9.20;;;11.40;99.90;;;-141.84;56.08;17647.94;5010360;28;20230;-63
2022/04/28 06:10:33;;;;;;;13.20;8.90;;;11.50;99.90;;;-141.84;56.95;17641.84;5021037;28;20248;-62
2022/04/28 06:13:01;;;;;;;11.53;8.77;;;11.40;99.90;;;-141.84;56.38;17664.19;5034054;28;20241;-62
2022/04/28 06:15:29;;;;;;;11.40;8.33;;;11.50;99.90;;;-141.84;56.25;17625.59;5033531;28;20301;-63
2022/04/28 06:17:58;;;;;;;13.63;8.83;;;11.40;99.90;;;-141.84;56.99;17611.38;5033806;28;20257;-64
2022/04/28 06:20:28;;;;;;;16.20;8.70;;;11.30;99.90;;;-141.84;58.03;17605.28;5033554;28;20785;-63
2022/04/28 06:22:56;;;;;;;12.10;9.33;;;11.10;99.90;;;-141.84;59.90;17556.53;5033698;28;20620;-60
2022/04/28 06:25:24;;;;;;;11.50;9.13;;;10.70;99.90;;;-141.84;60.80;17560.59;5031218;28;20685;-60
2022/04/28 06:27:52;;;;;;;12.40;9.27;;;10.50;99.90;;;-141.84;62.39;17515.91;5033875;28;20205;-62
2022/04/28 06:30:21;;;;;;;10.30;8.67;;;10.40;99.90;;;-141.84;62.51;17483.41;5033080;28;20277;-62
2022/04/28 06:32:49;;;;;;;11.37;8.73;;;10.40;99.90;;;-141.84;62.20;17501.69;5033259;28;20304;-63
2022/04/28 06:35:17;;;;;;;16.13;9.67;;;10.50;99.90;;;-141.84;61.08;17517.94;5032998;28;20222;-62
2022/04/28 06:37:47;;;;;;;10.87;9.23;;;10.70;99.90;;;-141.84;58.42;17611.38;5033144;28;20246;-59
2022/04/28 06:40:15;;;;;;;13.23;8.67;;;10.90;99.90;;;-141.84;58.33;17572.78;5033094;28;20233;-61
2022/04/28 06:42:45;;;;;;;11.50;9.07;;;11.20;99.90;;;-141.84;58.19;17591.06;5027486;28;20194;-61
2022/04/28 06:45:14;;;;;;;10.93;9.17;;;11.40;99.90;;;-141.84;57.92;17621.53;5033082;28;20308;-61
2022/04/28 06:47:42;;;;;;;11.50;9.57;;;11.60;99.90;;;-141.84;56.77;17637.78;5032973;28;20305;-59
2022/04/28 06:50:11;;;;;;;10.43;9.03;;;11.80;99.90;;;-141.84;54.75;17702.78;5032846;28;20717;-60
2022/04/28 06:52:40;;;;;;;10.40;8.77;;;12.20;99.90;;;-141.84;54.38;17743.41;5033005;28;20644;-61
2022/04/28 06:55:11;;;;;;;9.30;8.40;;;12.20;99.90;;;-141.84;53.86;17741.38;5032626;28;20220;-60
2022/04/28 06:57:39;;;;;;;9.70;8.70;;;12.40;99.90;;;-141.84;52.64;17765.75;5033001;28;20277;-60
2022/04/28 07:00:09;;;;;;;13.23;8.47;;;12.70;99.90;;;-141.84;50.95;17840.91;5032852;28;20253;-60
2022/04/28 07:02:37;;;;;;;10.23;8.40;;;13.10;99.90;;;-141.84;51.71;17802.31;5032500;28;20309;-60
2022/04/28 07:05:07;;;;;;;12.80;8.73;;;13.10;99.90;;;-141.84;52.21;17800.28;5032780;28;20225;-64
2022/04/28 07:07:35;;;;;;;13.70;10.00;;;12.90;99.90;;;-141.84;54.20;17717.00;5032411;28;20634;-65
2022/04/28 07:10:04;;;;;;;11.57;8.90;;;12.40;99.90;;;-141.84;55.97;17686.53;5032691;28;20296;-65
2022/04/28 07:12:35;;;;;;;13.90;9.73;;;12.10;99.90;;;-141.84;57.07;17658.09;5032821;28;20635;-65
2022/04/28 07:15:03;;;;;;;11.33;9.00;;;11.90;99.90;;;-141.84;58.24;17607.31;5032327;28;20696;-66
2022/04/28 07:17:31;;;;;;;10.67;9.20;;;11.60;99.90;;;-141.84;58.55;17599.19;5032314;28;20313;-65
2022/04/28 07:19:59;;;;;;;12.50;10.23;;;11.60;99.90;;;-141.84;58.96;17595.13;5032520;28;20257;-62
2022/04/28 07:22:27;;;;;;;11.70;9.50;;;11.40;99.90;;;-141.84;58.71;17572.78;5030895;28;20322;-63
2022/04/28 07:24:55;;;;;;;10.37;9.27;;;11.50;99.90;;;-141.84;57.66;17601.22;5032886;28;20233;-63
2022/04/28 07:27:23;;;;;;;12.43;9.60;;;11.70;99.90;;;-141.84;57.24;17641.84;5031895;28;20313;-65
2022/04/28 07:29:53;;;;;;;11.87;9.50;;;12.00;99.90;;;-141.84;56.44;17649.97;5031921;28;20615;-62
2022/04/28 07:32:21;;;;;;;13.17;9.27;;;12.20;99.90;;;-141.84;55.31;17694.66;5031477;28;20321;-63
2022/04/28 07:34:48;;;;;;;13.20;9.40;;;12.40;99.90;;;-141.84;55.28;17712.94;5032363;28;20236;-61
2022/04/28 07:37:16;;;;;;;14.37;10.10;;;12.50;99.90;;;-141.84;55.68;17672.31;5032258;28;20285;-62
2022/04/28 07:39:44;;;;;;;11.20;9.07;;;12.50;99.90;;;-141.84;56.39;17641.84;5032637;28;20210;-61
2022/04/28 07:42:12;;;;;;;12.77;9.30;;;12.40;99.90;;;-141.84;55.37;17660.13;5031637;28;20279;-61
2022/04/28 07:44:40;;;;;;;11.30;9.50;;;12.40;99.90;;;-141.84;55.08;17680.44;5012133;28;20314;-61
2022/04/28 07:47:10;;;;;;;10.57;9.00;;;12.50;99.90;;;-141.84;53.86;17735.28;5011728;28;20793;-61
2022/04/28 07:49:38;;;;;;;10.63;9.43;;;12.70;99.90;;;-141.84;53.01;17792.16;5011975;28;20232;-62
2022/04/28 07:52:07;;;;;;;11.63;8.60;;;12.90;99.90;;;-141.84;52.92;17751.53;5011655;28;20226;-68
2022/04/28 07:54:37;;;;;;;11.73;9.13;;;13.10;99.90;;;-141.84;52.42;17757.63;5012675;28;20202;-61
2022/04/28 07:57:06;;;;;;;10.57;9.07;;;13.20;99.90;;;-141.84;51.46;17820.59;5011662;28;20231;-61
2022/04/28 07:59:34;;;;;;;12.10;9.30;;;13.50;99.90;;;-141.84;49.71;17905.91;5012360;28;20235;-66
2022/04/28 08:02:04;;;;;;;12.85;9.10;;;13.80;99.90;;;-141.84;48.36;17964.84;5012120;28;20281;-63
2022/04/28 08:04:34;;;;;;;10.50;8.77;;;13.90;99.90;;;-141.84;49.07;17907.94;5012098;28;20239;-62
2022/04/28 08:07:03;;;;;;;11.77;8.95;;;13.90;99.90;;;-141.84;49.03;17905.91;5012056;28;20202;-63
2022/04/28 08:09:31;;;;;;;13.52;9.63;;;14.00;99.90;;;-141.84;48.95;17926.25;5012299;28;20217;-62
2022/04/28 08:12:06;;;;;;;11.10;9.65;;;14.10;99.90;;;-141.84;48.61;17905.91;5031138;28;20732;-62
2022/04/28 08:14:34;;;;;;;10.23;8.73;;;14.20;99.90;;;-141.84;48.92;17930.31;5031011;28;20253;-65
2022/04/28 08:17:04;;;;;;;10.98;9.20;;;14.30;99.90;;;-141.84;49.09;17940.47;5031544;28;20233;-63
2022/04/28 08:19:33;;;;;;;11.35;8.52;;;14.30;99.90;;;-141.84;48.15;17981.09;5031120;28;20710;-60
2022/04/28 08:22:02;;;;;;;11.35;9.43;;;14.50;99.90;;;-141.84;49.68;17881.53;5031593;28;20244;-60
2022/04/28 08:24:30;;;;;;;10.40;9.35;;;14.30;99.90;;;-141.84;49.74;17881.53;5031089;28;20241;-61
2022/04/28 08:26:58;;;;;;;10.65;8.63;;;14.10;99.90;;;-141.84;49.93;17887.63;5030832;28;20232;-61
2022/04/28 08:29:26;;;;;;;11.75;9.57;;;14.20;99.90;;;-141.84;50.23;17851.06;5030624;28;20308;-61
2022/04/28 08:31:55;;;;;;;15.13;9.63;;;14.00;99.90;;;-141.84;50.72;17875.44;5031282;28;20240;-61
2022/04/28 08:34:23;;;;;;;10.48;9.38;;;13.80;99.90;;;-141.84;50.92;17847.00;5030557;28;20275;-61
2022/04/28 08:36:53;;;;;;;12.77;9.77;;;13.80;99.90;;;-141.84;51.05;17867.31;5031359;28;20206;-61
2022/04/28 08:39:21;;;;;;;15.00;9.80;;;13.90;99.90;;;-141.84;51.52;17820.59;5030704;28;20256;-61
2022/04/28 08:41:49;;;;;;;10.18;9.05;;;13.90;99.90;;;-141.84;51.29;17822.63;5030533;28;20271;-60
2022/04/28 08:44:20;;;;;;;13.95;9.30;;;13.90;99.90;;;-141.84;51.75;17830.75;5014327;28;20627;-62
2022/04/28 08:46:51;;;;;;;13.70;9.60;;;13.90;99.90;;;-141.84;51.17;17834.81;5011219;28;20313;-61
2022/04/28 08:49:24;;;;;;;12.88;9.32;;;14.00;99.90;;;-141.84;50.80;17871.38;5011207;28;20190;-62
2022/04/28 08:51:55;;;;;;;12.03;9.73;;;14.10;99.90;;;-141.84;51.06;17842.94;5011555;28;20306;-61
2022/04/28 08:54:26;;;;;;;12.02;9.90;;;14.10;99.90;;;-141.84;51.05;17844.97;5010646;28;20234;-62
2022/04/28 08:56:57;;;;;;;10.95;9.40;;;14.10;99.90;;;-141.84;50.14;17871.38;5010914;28;20256;-62
2022/04/28 08:59:26;;;;;;;13.63;10.55;;;14.30;99.90;;;-141.84;49.90;17836.84;5010552;28;20778;-62
2022/04/28 09:01:54;;;;;;;11.23;9.88;;;14.30;99.90;;;-141.84;50.71;17847.00;5010592;28;20233;-61
2022/04/28 09:04:23;;;;;;;13.32;10.10;;;14.20;99.90;;;-141.84;48.72;17905.91;5010474;28;20280;-61
2022/04/28 09:06:56;;;;;;;10.90;9.57;;;14.20;99.90;;;-141.84;49.02;17916.06;5011449;28;20203;-61
2022/04/28 09:09:27;;;;;;;11.02;9.82;;;14.30;99.90;;;-141.84;49.43;17889.66;5010638;28;20254;-61
2022/04/28 09:12:00;;;;;;;12.17;10.00;;;14.30;99.90;;;-141.84;48.58;17928.28;5030174;28;20253;-61
2022/04/28 09:14:28;;;;;;;10.73;9.63;;;14.30;99.90;;;-141.84;47.79;17924.22;5030304;28;20308;-61
2022/04/28 09:16:59;;;;;;;11.55;10.35;;;14.30;99.90;;;-141.84;48.18;17936.41;5030545;28;20228;-61
2022/04/28 09:19:32;;;;;;;11.32;8.57;;;14.20;99.90;;;-141.84;48.29;17926.25;5030188;28;20604;-62
2022/04/28 09:22:08;;;;;;;12.55;10.52;;;14.30;99.90;;;-141.84;48.16;17993.28;5030482;28;20662;-61
2022/04/28 09:24:38;;;;;;;10.98;9.68;;;14.40;99.90;;;-141.84;46.43;18005.47;5029849;28;20221;-63
2022/04/28 09:27:08;;;;;;;14.13;10.35;;;14.50;99.90;;;-141.84;46.12;17997.34;5029869;28;20250;-62
2022/04/28 09:29:39;;;;;;;12.43;9.35;;;14.60;99.90;;;-141.84;45.82;18011.56;5030216;28;20621;-62
2022/04/28 09:32:12;;;;;;;10.63;9.52;;;14.70;99.90;;;-141.84;45.77;18011.56;5030081;28;20321;-62
2022/04/28 09:35:09;;;;;;;10.85;9.75;;;14.90;99.90;;;-141.84;46.43;18009.53;5029667;28;20234;-61
2022/04/28 09:37:39;;;;;;;12.13;9.95;;;14.90;99.90;;;-141.84;45.79;17997.34;5030172;28;20225;-61
2022/04/28 09:42:54;;;;;;;12.38;9.70;;;14.90;99.90;;;-141.84;44.60;18060.31;5025441;28;20183;-63
2022/04/28 09:45:25;;;;;;;11.90;9.73;;;15.20;99.90;;;-141.84;44.62;18054.22;5014321;28;20238;-61
2022/04/28 09:48:03;;;;;;;11.80;9.85;;;15.20;99.90;;;-141.84;43.33;18119.22;5016690;28;20276;-62
2022/04/28 09:50:32;;;;;;;10.73;9.63;;;15.20;99.90;;;-141.84;44.08;18127.34;5016152;28;20728;-62
2022/04/28 09:53:06;;;;;;;14.35;10.60;;;15.20;99.90;;;-141.84;43.77;18127.34;5016785;28;20234;-62
2022/04/28 09:55:35;;;;;;;12.00;9.82;;;15.20;99.90;;;-141.84;43.95;18119.22;5016569;28;20302;-62
2022/04/28 09:58:06;;;;;;;11.65;9.93;;;15.20;99.90;;;-141.84;43.49;18170.00;5016916;28;20299;-62
2022/04/28 10:00:34;;;;;;;11.48;9.73;;;15.30;99.90;;;-141.84;44.00;18113.13;5018175;28;20199;-62
2022/04/28 10:03:03;;;;;;;14.05;10.25;;;15.20;99.90;;;-141.84;42.80;18149.69;5017520;28;20240;-62
2022/04/28 10:05:33;;;;;;;10.27;9.27;;;15.30;99.90;;;-141.84;43.25;18167.97;5017346;28;20234;-63
2022/04/28 10:08:05;;;;;;;12.52;10.10;;;15.30;99.90;;;-141.84;42.95;18180.16;5017566;28;20234;-61
2022/04/28 10:10:35;;;;;;;13.55;10.30;;;15.40;99.90;;;-141.84;43.21;18161.88;5025725;28;20229;-61
2022/04/28 10:13:05;;;;;;;14.38;10.30;;;15.50;99.90;;;-141.84;42.61;18147.66;5037103;28;20233;-61
2022/04/28 10:15:33;;;;;;;13.93;9.43;;;15.60;99.90;;;-141.84;41.75;18180.16;5037838;28;20565;-60
2022/04/28 10:18:09;;;;;;;13.70;10.50;;;15.70;99.90;;;-141.84;41.48;18182.19;5037239;28;20236;-61
2022/04/28 10:20:41;;;;;;;11.85;9.52;;;15.70;99.90;;;-141.84;41.79;18237.06;5036663;28;20316;-61
2022/04/28 10:35:06;;;;;;;11.70;10.52;;;15.90;99.90;;;-141.84;41.82;18192.34;5035822;28;20604;-60
2022/04/28 10:37:36;;;;;;;12.73;10.15;;;15.90;99.90;;;-141.84;41.31;18253.31;5036131;28;20247;-62